createdAt,value
2023-04-09T00:01:05.760Z,33.90
2023-04-09T00:03:33.450Z,33.70
2023-04-09T00:06:00.857Z,33.80
2023-04-09T00:08:30.742Z,34.00
2023-04-09T00:10:58.711Z,34.10
2023-04-09T00:13:38.467Z,34.10
2023-04-09T00:16:07.086Z,34.10
2023-04-09T00:18:34.254Z,34.10
2023-04-09T00:21:01.396Z,33.90
2023-04-09T00:23:28.454Z,34.10
2023-04-09T00:25:55.499Z,34.10
2023-04-09T00:28:22.701Z,34.20
2023-04-09T00:30:49.643Z,34.30
2023-04-09T00:33:16.602Z,34.20
2023-04-09T00:35:43.769Z,34.30
2023-04-09T00:38:11.116Z,34.30
2023-04-09T00:40:38.398Z,34.40
2023-04-09T00:43:05.898Z,34.50
2023-04-09T00:45:33.593Z,34.50
2023-04-09T00:48:00.981Z,34.60
2023-04-09T00:50:28.330Z,34.60
2023-04-09T00:52:56.304Z,34.60
2023-04-09T00:55:23.613Z,34.60
2023-04-09T00:57:50.879Z,34.60
2023-04-09T01:00:17.881Z,34.60
2023-04-09T01:02:45.300Z,34.50
2023-04-09T01:05:13.407Z,34.50
2023-04-09T01:08:01.579Z,34.60
2023-04-09T01:10:59.722Z,34.50
2023-04-09T01:14:02.404Z,34.40
2023-04-09T01:16:32.879Z,34.60
2023-04-09T01:19:05.714Z,34.60
2023-04-09T01:21:34.484Z,34.50
2023-04-09T01:24:38.527Z,34.60
2023-04-09T01:27:09.556Z,34.40
2023-04-09T01:29:41.929Z,34.20
2023-04-09T01:32:09.834Z,34.20
2023-04-09T01:34:39.031Z,34.30
2023-04-09T01:37:07.349Z,34.40
2023-04-09T01:39:34.865Z,34.50
2023-04-09T01:42:03.992Z,34.50
2023-04-09T01:44:34.408Z,34.40
2023-04-09T01:47:02.127Z,34.40
2023-04-09T01:49:30.332Z,34.40
2023-04-09T01:51:57.885Z,34.40
2023-04-09T01:54:24.942Z,34.40
2023-04-09T01:56:51.897Z,34.50
2023-04-09T01:59:18.922Z,34.60
2023-04-09T02:01:48.465Z,34.60
2023-04-09T02:04:25.008Z,34.60
2023-04-09T02:06:59.838Z,34.50
2023-04-09T02:09:31.804Z,34.50
2023-04-09T02:12:02.714Z,34.60
2023-04-09T02:14:31.810Z,34.60
2023-04-09T02:16:59.811Z,34.60
2023-04-09T02:19:45.715Z,34.70
2023-04-09T02:22:13.880Z,34.60
2023-04-09T02:24:42.018Z,34.60
2023-04-09T02:27:09.601Z,34.70
2023-04-09T02:29:39.903Z,34.60
2023-04-09T02:32:07.370Z,34.70
2023-04-09T02:34:34.571Z,34.70
2023-04-09T02:37:01.622Z,34.60
2023-04-09T02:39:28.746Z,34.60
2023-04-09T02:41:56.410Z,34.60
2023-04-09T02:44:23.816Z,34.70
2023-04-09T02:46:52.050Z,34.70
2023-04-09T02:49:19.148Z,34.80
2023-04-09T02:51:46.273Z,34.70
2023-04-09T02:54:13.308Z,34.80
2023-04-09T02:56:40.369Z,34.80
2023-04-09T02:59:07.437Z,34.60
2023-04-09T03:01:35.815Z,34.70
2023-04-09T03:04:03.096Z,34.60
2023-04-09T03:06:30.215Z,34.60
2023-04-09T03:08:57.305Z,34.60
2023-04-09T03:11:24.323Z,34.50
2023-04-09T03:13:51.357Z,34.40
2023-04-09T03:16:18.411Z,34.40
2023-04-09T03:18:45.826Z,34.40
2023-04-09T03:21:14.889Z,34.40
2023-04-09T03:23:43.730Z,34.00
2023-04-09T03:26:10.722Z,34.10
2023-04-09T03:28:37.826Z,34.10
2023-04-09T03:31:04.848Z,34.00
2023-04-09T03:33:31.870Z,34.00
2023-04-09T03:35:59.082Z,34.10
2023-04-09T03:38:26.182Z,34.20
2023-04-09T03:40:53.175Z,34.20
2023-04-09T03:43:20.188Z,34.30
2023-04-09T03:45:47.151Z,34.30
2023-04-09T03:48:14.128Z,34.20
2023-04-09T03:50:42.310Z,34.30
2023-04-09T03:53:09.359Z,34.40
2023-04-09T03:55:37.940Z,34.40
2023-04-09T03:58:05.221Z,34.50
2023-04-09T04:00:32.253Z,34.60
2023-04-09T04:02:59.686Z,34.40
2023-04-09T04:05:26.988Z,34.50
2023-04-09T04:07:55.749Z,34.50
2023-04-09T04:10:22.681Z,34.50
2023-04-09T04:12:49.707Z,34.50
2023-04-09T04:15:16.782Z,34.40
2023-04-09T04:17:43.897Z,34.30
2023-04-09T04:20:11.320Z,34.30
2023-04-09T04:22:38.600Z,34.30
2023-04-09T04:25:05.993Z,34.30
2023-04-09T04:27:33.045Z,34.00
2023-04-09T04:30:02.228Z,34.10
2023-04-09T04:32:29.451Z,34.20
2023-04-09T04:34:56.561Z,34.30
2023-04-09T04:37:23.602Z,34.30
2023-04-09T04:39:50.658Z,34.40
2023-04-09T04:42:18.052Z,34.40
2023-04-09T04:44:45.315Z,34.30
2023-04-09T04:47:12.577Z,34.20
2023-04-09T04:49:39.655Z,34.20
2023-04-09T04:52:07.843Z,34.20
2023-04-09T04:54:35.333Z,34.30
2023-04-09T04:57:02.702Z,34.30
2023-04-09T04:59:29.957Z,34.40
2023-04-09T05:01:57.292Z,34.10
2023-04-09T05:04:24.472Z,34.10
2023-04-09T05:06:51.510Z,34.30
2023-04-09T05:09:20.497Z,34.20
2023-04-09T05:11:48.989Z,34.10
2023-04-09T05:14:16.111Z,34.30
2023-04-09T05:16:43.273Z,34.40
2023-04-09T05:19:10.829Z,34.30
2023-04-09T05:21:37.962Z,33.90
2023-04-09T05:24:05.444Z,34.00
2023-04-09T05:26:32.466Z,34.10
2023-04-09T05:28:59.574Z,34.10
2023-04-09T05:31:26.781Z,34.00
2023-04-09T05:33:54.210Z,34.10
2023-04-09T05:36:23.367Z,34.20
2023-04-09T05:38:50.667Z,34.10
2023-04-09T05:41:18.105Z,34.00
2023-04-09T05:43:45.097Z,34.00
2023-04-09T05:46:12.562Z,34.20
2023-04-09T05:48:39.722Z,34.20
2023-04-09T05:51:06.922Z,34.40
2023-04-09T05:53:34.607Z,34.40
2023-04-09T05:56:01.854Z,34.40
2023-04-09T05:58:29.254Z,34.40
2023-04-09T06:00:56.316Z,34.40
2023-04-09T06:03:23.509Z,34.60
2023-04-09T06:05:50.695Z,34.60
2023-04-09T06:08:17.779Z,34.60
2023-04-09T06:10:45.021Z,34.60
2023-04-09T06:13:12.212Z,34.70
2023-04-09T06:15:39.672Z,34.70
2023-04-09T06:18:06.937Z,34.70
2023-04-09T06:20:34.434Z,34.70
2023-04-09T06:23:02.976Z,34.90
2023-04-09T06:25:31.329Z,34.90
2023-04-09T06:27:58.336Z,34.90
2023-04-09T06:30:25.979Z,34.90
2023-04-09T06:32:55.074Z,34.90
2023-04-09T06:35:22.957Z,35.00
2023-04-09T06:37:50.541Z,35.00
2023-04-09T06:40:21.400Z,35.00
2023-04-09T06:42:49.922Z,35.00
2023-04-09T06:45:16.963Z,35.10
2023-04-09T06:47:44.059Z,34.90
2023-04-09T06:50:11.522Z,35.20
2023-04-09T06:52:38.576Z,35.10
2023-04-09T06:55:06.072Z,35.20
2023-04-09T06:57:33.181Z,35.00
2023-04-09T07:00:00.478Z,34.90
2023-04-09T07:02:28.198Z,34.40
2023-04-09T07:04:55.802Z,34.60
2023-04-09T07:07:24.274Z,34.60
2023-04-09T07:09:53.987Z,34.90
2023-04-09T07:12:31.801Z,35.10
2023-04-09T07:15:06.934Z,35.00
2023-04-09T07:17:34.820Z,35.00
2023-04-09T07:20:02.294Z,35.20
2023-04-09T07:22:30.792Z,34.90
2023-04-09T07:24:57.970Z,35.30
2023-04-09T07:27:27.674Z,35.40
2023-04-09T07:29:59.267Z,35.40
2023-04-09T07:32:28.738Z,35.60
2023-04-09T07:34:56.136Z,35.70
2023-04-09T07:37:23.549Z,36.00
2023-04-09T07:39:51.497Z,35.90
2023-04-09T07:42:18.560Z,36.10
2023-04-09T07:44:45.639Z,36.30
2023-04-09T07:47:13.104Z,36.50
2023-04-09T07:49:40.326Z,36.40
2023-04-09T07:52:07.711Z,36.70
2023-04-09T07:54:35.776Z,37.00
2023-04-09T07:57:02.862Z,37.20
2023-04-09T07:59:31.678Z,37.30
2023-04-09T08:01:59.911Z,37.40
2023-04-09T08:04:28.225Z,37.40
2023-04-09T08:06:55.347Z,37.00
2023-04-09T08:09:22.625Z,37.20
2023-04-09T08:11:50.171Z,37.20
2023-04-09T08:14:18.580Z,37.40
2023-04-09T08:16:50.396Z,37.40
2023-04-09T08:19:19.152Z,37.50
2023-04-09T08:21:48.950Z,37.80
2023-04-09T08:24:16.485Z,38.10
2023-04-09T08:26:43.887Z,38.30
2023-04-09T08:29:13.021Z,38.40
2023-04-09T08:31:42.040Z,38.60
2023-04-09T08:34:09.458Z,38.60
2023-04-09T08:36:37.237Z,38.40
2023-04-09T08:39:04.407Z,38.70
2023-04-09T08:41:31.819Z,39.10
2023-04-09T08:43:59.973Z,39.10
2023-04-09T08:46:27.962Z,38.80
2023-04-09T08:48:55.616Z,39.00
2023-04-09T08:51:24.490Z,39.30
2023-04-09T08:54:04.430Z,39.70
2023-04-09T08:56:32.251Z,39.40
2023-04-09T08:58:59.347Z,39.40
2023-04-09T09:01:28.960Z,39.90
2023-04-09T09:03:57.979Z,39.90
2023-04-09T09:06:30.213Z,40.30
2023-04-09T09:09:17.634Z,40.30
2023-04-09T09:11:51.138Z,39.80
2023-04-09T09:14:21.067Z,39.70
2023-04-09T09:16:57.918Z,40.10
2023-04-09T09:19:25.121Z,40.10
2023-04-09T09:22:03.415Z,39.90
2023-04-09T09:24:32.792Z,39.40
2023-04-09T09:27:00.718Z,38.80
2023-04-09T09:29:28.675Z,39.40
2023-04-09T09:31:56.751Z,39.30
2023-04-09T09:34:25.057Z,39.60
2023-04-09T09:36:52.136Z,39.40
2023-04-09T09:39:19.352Z,39.60
2023-04-09T09:41:47.480Z,39.50
2023-04-09T09:44:32.146Z,39.80
2023-04-09T09:47:00.781Z,39.20
2023-04-09T09:49:27.785Z,39.50
2023-04-09T09:51:59.355Z,39.60
2023-04-09T09:54:27.231Z,39.60
2023-04-09T09:56:57.708Z,39.30
2023-04-09T09:59:31.198Z,39.80
2023-04-09T10:02:04.320Z,39.50
2023-04-09T10:04:38.584Z,39.60
2023-04-09T10:07:07.392Z,39.60
2023-04-09T10:09:37.906Z,39.50
2023-04-09T10:12:11.613Z,39.90
2023-04-09T10:14:39.968Z,40.00
2023-04-09T10:17:07.333Z,40.10
2023-04-09T10:19:43.316Z,39.80
2023-04-09T10:22:18.401Z,40.20
2023-04-09T10:24:47.500Z,40.20
2023-04-09T10:27:17.212Z,39.50
2023-04-09T10:29:49.142Z,39.60
2023-04-09T10:32:21.873Z,40.20
2023-04-09T10:34:50.858Z,40.30
2023-04-09T10:37:28.811Z,40.60
2023-04-09T10:39:56.738Z,40.60
2023-04-09T10:42:36.737Z,41.00
2023-04-09T10:45:07.847Z,41.20
2023-04-09T10:47:37.413Z,41.50
2023-04-09T10:50:24.048Z,40.70
2023-04-09T10:53:00.413Z,41.10
2023-04-09T10:55:41.682Z,41.50
2023-04-09T10:58:13.348Z,41.20
2023-04-09T11:00:43.080Z,41.40
2023-04-09T11:03:22.000Z,40.80
2023-04-09T11:05:53.257Z,40.40
2023-04-09T11:08:22.236Z,41.00
2023-04-09T11:10:51.977Z,41.30
2023-04-09T11:13:20.891Z,41.40
2023-04-09T11:15:47.897Z,41.00
2023-04-09T11:18:26.211Z,40.90
2023-04-09T11:20:56.927Z,41.00
2023-04-09T11:23:25.014Z,40.90
2023-04-09T11:25:52.812Z,41.00
2023-04-09T11:28:20.978Z,40.70
2023-04-09T11:30:50.283Z,40.10
2023-04-09T11:33:19.776Z,40.40
2023-04-09T11:35:47.950Z,40.50
2023-04-09T11:38:15.065Z,40.70
2023-04-09T11:40:49.816Z,40.90
2023-04-09T11:43:18.089Z,40.90
2023-04-09T11:45:48.558Z,40.70
2023-04-09T11:48:18.760Z,40.60
2023-04-09T11:50:46.787Z,40.70
2023-04-09T11:53:20.875Z,41.20
2023-04-09T11:55:53.339Z,41.20
2023-04-09T11:58:25.743Z,41.50
2023-04-09T12:00:59.010Z,41.10
2023-04-09T12:03:31.442Z,40.90
2023-04-09T12:06:02.069Z,41.40
2023-04-09T12:08:29.115Z,41.40
2023-04-09T12:10:56.256Z,40.70
2023-04-09T12:13:33.453Z,40.80
2023-04-09T12:16:01.558Z,41.00
2023-04-09T12:18:28.666Z,41.50
2023-04-09T12:20:56.146Z,41.70
2023-04-09T12:23:23.165Z,41.80
2023-04-09T12:25:50.622Z,42.00
2023-04-09T12:28:18.742Z,41.90
2023-04-09T12:30:47.156Z,41.90
2023-04-09T12:33:14.251Z,41.90
2023-04-09T12:35:41.377Z,41.90
2023-04-09T12:38:08.627Z,42.20
2023-04-09T12:40:37.105Z,42.00
2023-04-09T12:43:04.721Z,41.80
2023-04-09T12:45:33.092Z,41.60
2023-04-09T12:48:00.204Z,40.80
2023-04-09T12:50:28.439Z,40.90
2023-04-09T12:52:55.434Z,40.70
2023-04-09T12:55:22.618Z,40.70
2023-04-09T12:57:51.450Z,40.50
2023-04-09T13:00:18.497Z,40.80
2023-04-09T13:02:45.835Z,40.80
2023-04-09T13:05:13.140Z,40.50
2023-04-09T13:07:42.730Z,39.90
2023-04-09T13:10:10.590Z,39.10
2023-04-09T13:12:37.741Z,39.30
2023-04-09T13:15:08.088Z,39.20
2023-04-09T13:17:35.250Z,38.70
2023-04-09T13:20:02.406Z,38.90
2023-04-09T13:22:29.861Z,38.60
2023-04-09T13:24:57.467Z,38.80
2023-04-09T13:27:24.569Z,39.00
2023-04-09T13:29:54.744Z,38.10
2023-04-09T13:32:23.452Z,37.40
2023-04-09T13:34:52.079Z,37.50
2023-04-09T13:37:19.596Z,37.10
2023-04-09T13:39:46.697Z,37.50
2023-04-09T13:42:14.526Z,37.60
2023-04-09T13:44:44.921Z,37.00
2023-04-09T13:47:13.385Z,37.10
2023-04-09T13:49:41.565Z,36.80
2023-04-09T13:52:09.686Z,37.10
2023-04-09T13:54:36.944Z,37.50
2023-04-09T13:57:05.009Z,37.70
2023-04-09T13:59:32.240Z,38.00
2023-04-09T14:01:59.468Z,38.30
2023-04-09T14:04:26.816Z,38.30
2023-04-09T14:06:53.932Z,38.90
2023-04-09T14:09:21.189Z,39.00
2023-04-09T14:11:49.764Z,38.70
2023-04-09T14:14:18.409Z,38.30
2023-04-09T14:16:45.418Z,38.60
2023-04-09T14:19:12.469Z,38.60
2023-04-09T14:21:40.261Z,38.70
2023-04-09T14:24:07.771Z,38.60
2023-04-09T14:26:34.788Z,38.90
2023-04-09T14:29:02.157Z,38.10
2023-04-09T14:31:29.545Z,38.60
2023-04-09T14:33:56.938Z,39.00
2023-04-09T14:36:24.657Z,39.00
2023-04-09T14:38:52.531Z,39.80
2023-04-09T14:41:21.266Z,39.80
2023-04-09T14:43:48.445Z,40.20
2023-04-09T14:46:15.891Z,40.50
2023-04-09T14:48:42.907Z,40.70
2023-04-09T14:51:11.131Z,40.80
2023-04-09T14:53:38.753Z,39.80
2023-04-09T14:56:06.701Z,39.30
2023-04-09T14:58:33.876Z,38.70
2023-04-09T15:01:00.996Z,38.30
2023-04-09T15:03:28.337Z,38.70
2023-04-09T15:05:56.275Z,38.40
2023-04-09T15:08:23.898Z,38.70
2023-04-09T15:10:51.419Z,38.70
2023-04-09T15:13:18.627Z,38.20
2023-04-09T15:15:48.731Z,37.70
2023-04-09T15:18:16.145Z,37.20
2023-04-09T15:20:43.738Z,37.10
2023-04-09T15:23:13.220Z,36.40
2023-04-09T15:25:40.358Z,35.80
2023-04-09T15:28:07.761Z,35.60
2023-04-09T15:30:36.247Z,35.50
2023-04-09T15:33:04.639Z,35.30
2023-04-09T15:35:31.944Z,35.00
2023-04-09T15:37:59.162Z,34.40
2023-04-09T15:40:26.186Z,34.50
2023-04-09T15:42:53.355Z,34.50
2023-04-09T15:45:20.801Z,34.50
2023-04-09T15:47:48.211Z,34.40
2023-04-09T15:50:15.666Z,34.30
2023-04-09T15:52:42.849Z,34.00
2023-04-09T15:55:11.283Z,33.90
2023-04-09T15:57:38.802Z,33.60
2023-04-09T16:00:10.835Z,33.40
2023-04-09T16:02:39.068Z,34.20
2023-04-09T16:05:07.304Z,33.80
2023-04-09T16:07:34.822Z,33.50
2023-04-09T16:10:02.800Z,34.00
2023-04-09T16:12:30.855Z,34.20
2023-04-09T16:14:59.669Z,34.10
2023-04-09T16:17:26.787Z,33.20
2023-04-09T16:19:54.015Z,33.00
2023-04-09T16:22:21.109Z,33.80
2023-04-09T16:24:49.256Z,33.80
2023-04-09T16:27:16.966Z,34.20
2023-04-09T16:29:46.916Z,34.20
2023-04-09T16:32:14.449Z,34.20
2023-04-09T16:34:41.773Z,34.30
2023-04-09T16:37:11.436Z,34.40
2023-04-09T16:39:38.533Z,33.80
2023-04-09T16:42:06.063Z,33.70
2023-04-09T16:44:33.296Z,33.80
2023-04-09T16:47:01.187Z,33.60
2023-04-09T16:49:28.489Z,33.70
2023-04-09T16:51:57.328Z,33.60
2023-04-09T16:54:24.334Z,33.60
2023-04-09T16:56:51.410Z,33.60
2023-04-09T16:59:21.057Z,33.70
2023-04-09T17:01:49.376Z,33.70
2023-04-09T17:04:18.355Z,33.70
2023-04-09T17:06:46.090Z,33.80
2023-04-09T17:09:14.465Z,33.60
2023-04-09T17:11:42.480Z,33.80
2023-04-09T17:14:09.751Z,33.90
2023-04-09T17:16:38.289Z,34.10
2023-04-09T17:19:05.470Z,34.20
2023-04-09T17:21:37.929Z,34.10
2023-04-09T17:24:05.893Z,34.10
2023-04-09T17:26:33.150Z,33.90
2023-04-09T17:29:00.289Z,33.90
2023-04-09T17:31:29.955Z,33.90
2023-04-09T17:33:57.189Z,33.90
2023-04-09T17:36:24.334Z,34.10
2023-04-09T17:38:55.267Z,33.60
2023-04-09T17:41:23.050Z,33.40
2023-04-09T17:43:51.635Z,33.40
2023-04-09T17:46:18.995Z,33.40
2023-04-09T17:48:46.585Z,33.30
2023-04-09T17:51:24.319Z,33.30
2023-04-09T17:53:54.371Z,33.00
2023-04-09T17:56:23.894Z,32.40
2023-04-09T17:59:01.157Z,32.60
2023-04-09T18:01:28.661Z,32.90
2023-04-09T18:04:02.230Z,32.70
2023-04-09T18:06:29.727Z,32.70
2023-04-09T18:08:57.948Z,33.00
2023-04-09T18:11:25.337Z,32.70
2023-04-09T18:13:52.629Z,32.80
2023-04-09T18:16:23.354Z,32.70
2023-04-09T18:18:50.803Z,32.60
2023-04-09T18:21:19.109Z,32.80
2023-04-09T18:23:47.420Z,32.60
2023-04-09T18:26:14.638Z,32.30
2023-04-09T18:28:43.121Z,32.50
2023-04-09T18:31:11.946Z,32.30
2023-04-09T18:33:38.937Z,32.30
2023-04-09T18:36:06.484Z,32.00
2023-04-09T18:38:33.491Z,31.90
2023-04-09T18:41:01.812Z,32.20
2023-04-09T18:43:29.044Z,32.20
2023-04-09T18:45:57.427Z,32.10
2023-04-09T18:48:24.558Z,32.00
2023-04-09T18:50:51.715Z,31.90
2023-04-09T18:53:18.759Z,32.10
2023-04-09T18:55:46.630Z,32.20
2023-04-09T18:58:15.239Z,32.60
2023-04-09T19:00:43.888Z,32.60
2023-04-09T19:03:11.344Z,32.60
2023-04-09T19:05:38.930Z,32.80
2023-04-09T19:08:07.639Z,32.90
2023-04-09T19:10:34.729Z,32.60
2023-04-09T19:13:02.272Z,32.60
2023-04-09T19:15:29.630Z,32.50
2023-04-09T19:17:57.579Z,32.20
2023-04-09T19:20:27.950Z,32.10
2023-04-09T19:22:56.890Z,32.20
2023-04-09T19:25:24.309Z,32.30
2023-04-09T19:27:53.822Z,32.30
2023-04-09T19:30:21.409Z,32.10
2023-04-09T19:32:48.493Z,32.00
2023-04-09T19:35:15.668Z,31.70
2023-04-09T19:37:43.034Z,31.80
2023-04-09T19:40:10.695Z,31.80
2023-04-09T19:42:38.082Z,31.60
2023-04-09T19:45:05.616Z,31.60
2023-04-09T19:47:34.899Z,31.40
2023-04-09T19:50:02.272Z,31.60
2023-04-09T19:52:29.352Z,31.60
2023-04-09T19:54:56.568Z,31.20
2023-04-09T19:57:24.022Z,31.30
2023-04-09T19:59:52.371Z,31.20
2023-04-09T20:02:20.730Z,31.30
2023-04-09T20:04:47.909Z,31.50
2023-04-09T20:07:15.742Z,31.60
2023-04-09T20:09:43.734Z,31.50
2023-04-09T20:12:11.104Z,31.50
2023-04-09T20:14:41.265Z,31.60
2023-04-09T20:17:09.835Z,31.90
2023-04-09T20:19:38.152Z,32.00
2023-04-09T20:22:05.438Z,31.80
2023-04-09T20:24:33.955Z,31.80
2023-04-09T20:27:01.813Z,31.70
2023-04-09T20:29:28.840Z,31.70
2023-04-09T20:31:56.031Z,31.80
2023-04-09T20:34:26.890Z,32.10
2023-04-09T20:36:54.731Z,32.20
2023-04-09T20:39:22.446Z,32.30
2023-04-09T20:41:49.560Z,32.40
2023-04-09T20:44:19.520Z,32.60
2023-04-09T20:46:46.510Z,32.70
2023-04-09T20:49:13.616Z,32.70
2023-04-09T20:51:40.695Z,32.70
2023-04-09T20:54:07.667Z,32.80
2023-04-09T20:56:34.797Z,32.80
2023-04-09T20:59:01.754Z,32.80
2023-04-09T21:01:31.173Z,32.70
2023-04-09T21:03:58.838Z,32.60
2023-04-09T21:06:26.374Z,32.70
2023-04-09T21:08:56.136Z,32.70
2023-04-09T21:11:25.812Z,32.50
2023-04-09T21:13:55.149Z,32.50
2023-04-09T21:16:23.222Z,32.50
2023-04-09T21:18:50.502Z,32.50
2023-04-09T21:21:18.036Z,32.30
2023-04-09T21:23:45.083Z,32.50
2023-04-09T21:26:12.757Z,32.60
2023-04-09T21:28:39.941Z,32.70
2023-04-09T21:31:07.009Z,32.70
2023-04-09T21:33:34.762Z,32.80
2023-04-09T21:36:03.575Z,32.90
2023-04-09T21:38:30.569Z,32.90
2023-04-09T21:40:58.131Z,32.90
2023-04-09T21:43:28.995Z,32.90
2023-04-09T21:45:57.287Z,32.80
2023-04-09T21:48:24.538Z,32.80
2023-04-09T21:50:53.170Z,32.70
2023-04-09T21:53:20.531Z,32.80
2023-04-09T21:55:47.586Z,32.80
2023-04-09T21:58:15.597Z,32.90
2023-04-09T22:00:43.036Z,32.90
2023-04-09T22:03:10.373Z,32.80
2023-04-09T22:05:37.729Z,32.80
2023-04-09T22:08:04.811Z,32.90
2023-04-09T22:10:32.108Z,32.70
2023-04-09T22:12:59.159Z,32.70
2023-04-09T22:15:27.224Z,32.70
2023-04-09T22:17:54.433Z,32.70
2023-04-09T22:20:22.396Z,32.70
2023-04-09T22:22:49.465Z,32.70
2023-04-09T22:25:16.570Z,32.70
2023-04-09T22:27:44.006Z,32.80
2023-04-09T22:30:11.339Z,32.90
2023-04-09T22:32:38.367Z,33.00
2023-04-09T22:35:06.513Z,33.00
2023-04-09T22:37:33.751Z,33.10
2023-04-09T22:40:01.163Z,33.10
2023-04-09T22:42:30.308Z,33.10
2023-04-09T22:44:58.457Z,33.00
2023-04-09T22:47:25.640Z,33.00
2023-04-09T22:49:55.020Z,32.90
2023-04-09T22:52:22.323Z,32.70
2023-04-09T22:54:49.381Z,32.70
2023-04-09T22:57:16.568Z,32.60
2023-04-09T22:59:43.638Z,32.50
2023-04-09T23:02:10.806Z,32.50
2023-04-09T23:04:38.152Z,32.50
2023-04-09T23:07:05.238Z,32.40
2023-04-09T23:09:32.293Z,32.50
2023-04-09T23:11:59.740Z,32.50
2023-04-09T23:14:26.787Z,32.60
2023-04-09T23:16:53.885Z,32.60
2023-04-09T23:19:20.918Z,32.60
2023-04-09T23:21:48.021Z,32.50
2023-04-09T23:24:15.231Z,32.50
2023-04-09T23:26:42.190Z,32.50
2023-04-09T23:29:09.688Z,32.50
2023-04-09T23:31:37.038Z,32.50
2023-04-09T23:34:04.161Z,32.60
2023-04-09T23:36:31.866Z,32.60
2023-04-09T23:38:59.007Z,32.70
2023-04-09T23:41:26.422Z,32.50
2023-04-09T23:43:53.674Z,32.30
2023-04-09T23:46:20.762Z,32.30
2023-04-09T23:48:47.971Z,32.20
2023-04-09T23:51:19.090Z,32.30
2023-04-09T23:53:46.307Z,32.00
2023-04-09T23:56:16.430Z,32.00
2023-04-09T23:58:43.588Z,32.20
